Time;durP1;ratioP1;P1;durP2;ratioP2;P2;SDS_P1;SDS_P2;PMS_P1;PMS_P2;Temp;Humidity;BMP_temperature;BMP_pressure;BME280_temperature;BME280_humidity;BME280_pressure;Samples;Min_cycle;Max_cycle;Signal;HPM_P1;HPM_P2
2023/06/14 00:02:23;;;;;;;3.13;2.73;;;;;;;;;;5119338;28;20218;-70
2023/06/14 00:04:52;;;;;;;9.30;2.70;;;;;;;;;;5119001;28;20293;-70
2023/06/14 00:07:34;;;;;;;5.13;2.63;;;;;;;;;;5119167;28;20576;-70
2023/06/14 00:10:03;;;;;;;3.33;2.77;;;;;;;;;;5119348;28;20213;-69
2023/06/14 00:12:32;;;;;;;5.03;2.83;;;;;;;;;;5119204;28;20287;-69
2023/06/14 00:15:01;;;;;;;5.90;2.87;;;;;;;;;;5119033;28;20206;-69
2023/06/14 00:17:31;;;;;;;2.83;2.37;;;;;;;;;;5118932;28;20209;-69
2023/06/14 00:19:59;;;;;;;3.73;2.20;;;;;;;;;;5119293;28;20288;-70
2023/06/14 00:22:28;;;;;;;4.37;2.67;;;;;;;;;;5119026;28;20206;-69
2023/06/14 00:24:56;;;;;;;2.70;2.50;;;;;;;;;;5118711;28;20229;-69
2023/06/14 00:27:24;;;;;;;2.60;2.30;;;;;;;;;;5119050;28;20208;-70
2023/06/14 00:29:54;;;;;;;2.57;2.33;;;;;;;;;;5118784;28;20273;-70
2023/06/14 00:32:25;;;;;;;4.70;2.30;;;;;;;;;;5119150;28;20212;-70
2023/06/14 00:34:53;;;;;;;3.03;2.47;;;;;;;;;;5117711;28;20674;-69
2023/06/14 00:37:22;;;;;;;6.00;2.37;;;;;;;;;;5118952;28;20247;-69
2023/06/14 00:39:50;;;;;;;2.27;2.07;;;;;;;;;;5118788;28;20206;-69
2023/06/14 00:42:25;;;;;;;3.30;2.40;;;;;;;;;;5118872;28;20214;-69
2023/06/14 00:44:55;;;;;;;1.83;1.73;;;;;;;;;;5118851;28;20209;-69
2023/06/14 00:47:23;;;;;;;2.53;2.33;;;;;;;;;;5118499;28;20208;-70
2023/06/14 00:49:51;;;;;;;4.17;2.40;;;;;;;;;;5118370;28;20232;-69
2023/06/14 00:52:20;;;;;;;4.93;3.20;;;;;;;;;;5118430;28;20214;-69
2023/06/14 00:54:48;;;;;;;2.83;2.60;;;;;;;;;;5118147;28;20599;-69
2023/06/14 00:57:16;;;;;;;7.33;3.70;;;;;;;;;;5118671;28;20287;-69
2023/06/14 00:59:48;;;;;;;5.67;3.10;;;;;;;;;;5118425;28;20197;-70
2023/06/14 01:02:17;;;;;;;5.63;3.90;;;;;;;;;;5118601;28;20583;-69
2023/06/14 01:04:47;;;;;;;6.40;3.97;;;;;;;;;;5118565;28;20212;-69
2023/06/14 01:07:20;;;;;;;9.10;4.10;;;;;;;;;;5118197;28;20209;-69
2023/06/14 01:09:51;;;;;;;4.53;3.20;;;;;;;;;;5118390;28;20228;-69
2023/06/14 01:12:22;;;;;;;4.17;3.43;;;;;;;;;;5118293;28;20208;-69
2023/06/14 01:14:51;;;;;;;5.20;3.73;;;;;;;;;;5118079;28;20214;-69
2023/06/14 01:17:20;;;;;;;4.90;3.10;;;;;;;;;;5118322;28;20204;-69
2023/06/14 01:19:48;;;;;;;6.07;4.07;;;;;;;;;;5118225;28;20264;-69
2023/06/14 01:22:17;;;;;;;3.00;2.80;;;;;;;;;;5118362;28;20208;-69
2023/06/14 01:24:46;;;;;;;4.57;3.40;;;;;;;;;;5118157;28;20290;-69
2023/06/14 01:27:15;;;;;;;6.70;3.10;;;;;;;;;;5118199;28;20220;-70
2023/06/14 01:29:45;;;;;;;6.90;3.40;;;;;;;;;;5117936;28;20311;-70
2023/06/14 01:32:14;;;;;;;6.93;3.27;;;;;;;;;;5118229;28;20205;-69
2023/06/14 01:34:42;;;;;;;7.70;3.00;;;;;;;;;;5117954;28;20204;-70
2023/06/14 01:37:11;;;;;;;5.40;3.70;;;;;;;;;;5118160;28;20277;-69
2023/06/14 01:39:40;;;;;;;6.47;3.60;;;;;;;;;;5117763;28;20197;-69
2023/06/14 01:42:11;;;;;;;3.77;2.53;;;;;;;;;;5118128;28;20291;-69
2023/06/14 01:44:39;;;;;;;7.80;2.90;;;;;;;;;;5103961;28;20293;-69
2023/06/14 01:47:07;;;;;;;3.57;2.50;;;;;;;;;;5120446;28;20230;-69
2023/06/14 01:49:35;;;;;;;4.57;2.50;;;;;;;;;;5121849;28;20226;-69
2023/06/14 01:52:04;;;;;;;4.17;2.40;;;;;;;;;;5122118;28;20207;-70
2023/06/14 01:54:32;;;;;;;4.17;2.73;;;;;;;;;;5121596;28;20667;-69
2023/06/14 01:57:00;;;;;;;2.97;2.67;;;;;;;;;;5121945;28;20311;-69
2023/06/14 01:59:31;;;;;;;4.10;2.70;;;;;;;;;;5122039;28;20203;-68
2023/06/14 02:01:59;;;;;;;3.27;2.73;;;;;;;;;;5121897;28;20319;-67
2023/06/14 02:04:27;;;;;;;3.67;2.50;;;;;;;;;;5121393;28;20209;-70
2023/06/14 02:06:55;;;;;;;3.67;2.73;;;;;;;;;;5121361;28;20662;-67
2023/06/14 02:09:23;;;;;;;3.77;2.53;;;;;;;;;;5121581;28;20236;-68
2023/06/14 02:11:51;;;;;;;5.67;3.80;;;;;;;;;;5121434;28;20213;-68
2023/06/14 02:14:20;;;;;;;7.73;2.90;;;;;;;;;;5121802;28;20272;-70
2023/06/14 02:16:49;;;;;;;3.27;2.50;;;;;;;;;;5121296;28;20314;-68
2023/06/14 02:19:18;;;;;;;5.13;2.53;;;;;;;;;;5121470;28;20212;-72
2023/06/14 02:21:46;;;;;;;2.40;2.20;;;;;;;;;;5121818;28;20205;-71
2023/06/14 02:24:15;;;;;;;3.43;2.33;;;;;;;;;;5121255;28;20209;-71
2023/06/14 02:26:43;;;;;;;3.17;2.50;;;;;;;;;;5121297;28;20221;-70
2023/06/14 02:29:14;;;;;;;2.90;2.70;;;;;;;;;;5121391;28;20221;-70
2023/06/14 02:31:42;;;;;;;3.70;2.10;;;;;;;;;;5121203;28;20224;-70
2023/06/14 02:34:12;;;;;;;3.50;2.40;;;;;;;;;;5120782;27;20292;-71
2023/06/14 02:36:41;;;;;;;3.37;2.60;;;;;;;;;;5120969;28;20229;-70
2023/06/14 02:39:10;;;;;;;4.83;3.07;;;;;;;;;;5120996;28;20208;-72
2023/06/14 02:41:38;;;;;;;8.43;2.97;;;;;;;;;;5121239;28;20201;-72
2023/06/14 02:44:08;;;;;;;6.67;3.13;;;;;;;;;;5121072;28;20207;-72
2023/06/14 02:46:36;;;;;;;5.60;2.60;;;;;;;;;;5120822;28;20235;-72
2023/06/14 02:49:04;;;;;;;3.90;2.67;;;;;;;;;;5120462;28;20316;-72
2023/06/14 02:51:34;;;;;;;7.00;2.47;;;;;;;;;;5121042;28;20209;-72
2023/06/14 02:54:03;;;;;;;5.30;2.80;;;;;;;;;;5120649;28;20250;-72
2023/06/14 02:56:31;;;;;;;4.87;2.80;;;;;;;;;;5120807;28;20288;-73
2023/06/14 02:59:01;;;;;;;4.37;2.83;;;;;;;;;;5119848;28;20201;-72
2023/06/14 03:01:34;;;;;;;4.83;2.97;;;;;;;;;;5120532;28;20308;-72
2023/06/14 03:04:03;;;;;;;7.40;2.60;;;;;;;;;;5120225;28;20573;-71
2023/06/14 03:06:31;;;;;;;4.70;2.23;;;;;;;;;;5120409;28;20252;-72
2023/06/14 03:09:04;;;;;;;5.20;2.70;;;;;;;;;;5120114;28;20607;-73
2023/06/14 03:11:32;;;;;;;5.57;2.80;;;;;;;;;;5120321;28;20215;-73
2023/06/14 03:14:03;;;;;;;6.97;2.77;;;;;;;;;;5120331;28;20574;-72
2023/06/14 03:16:31;;;;;;;3.43;2.60;;;;;;;;;;5120366;28;20237;-73
2023/06/14 03:18:59;;;;;;;5.87;2.70;;;;;;;;;;5120181;28;20205;-72
2023/06/14 03:21:28;;;;;;;2.53;2.33;;;;;;;;;;5120432;28;20209;-73
2023/06/14 03:23:56;;;;;;;4.50;2.80;;;;;;;;;;5120345;28;20240;-73
2023/06/14 03:26:26;;;;;;;8.43;2.30;;;;;;;;;;5120028;28;20233;-72
2023/06/14 03:28:54;;;;;;;2.27;2.00;;;;;;;;;;5119986;28;20205;-72
2023/06/14 03:31:23;;;;;;;4.10;2.63;;;;;;;;;;5120236;28;20212;-73
2023/06/14 03:33:52;;;;;;;5.77;2.67;;;;;;;;;;5119650;27;20255;-72
2023/06/14 03:36:20;;;;;;;4.80;2.23;;;;;;;;;;5119755;28;20593;-72
2023/06/14 03:38:48;;;;;;;4.07;2.37;;;;;;;;;;5119942;28;20212;-72
2023/06/14 03:41:16;;;;;;;3.27;2.20;;;;;;;;;;5120015;28;20216;-73
2023/06/14 03:43:46;;;;;;;3.30;2.50;;;;;;;;;;5119707;28;20684;-72
2023/06/14 03:46:14;;;;;;;2.93;2.40;;;;;;;;;;5109165;28;20260;-73
2023/06/14 03:48:42;;;;;;;2.47;2.27;;;;;;;;;;5119641;27;20209;-72
2023/06/14 03:51:10;;;;;;;3.50;2.53;;;;;;;;;;5119617;28;20225;-72
2023/06/14 03:53:38;;;;;;;3.00;2.43;;;;;;;;;;5119157;28;20236;-72
2023/06/14 03:56:26;;;;;;;3.60;2.13;;;;;;;;;;5119654;28;20225;-72
2023/06/14 03:58:56;;;;;;;4.47;2.70;;;;;;;;;;5105631;28;20388;-72
2023/06/14 04:01:29;;;;;;;3.70;2.30;;;;;;;;;;5119546;28;20208;-72
2023/06/14 04:03:58;;;;;;;5.30;2.20;;;;;;;;;;5119237;28;20207;-72
2023/06/14 04:06:31;;;;;;;2.20;1.93;;;;;;;;;;5119224;28;20235;-73
2023/06/14 04:09:03;;;;;;;2.53;2.33;;;;;;;;;;5119170;28;20597;-72
2023/06/14 04:11:32;;;;;;;2.57;2.27;;;;;;;;;;5119413;28;20231;-73
2023/06/14 04:14:03;;;;;;;3.40;2.63;;;;;;;;;;5119065;28;20274;-72
2023/06/14 04:16:31;;;;;;;6.27;2.50;;;;;;;;;;5119039;28;20305;-73
2023/06/14 04:18:59;;;;;;;3.40;2.03;;;;;;;;;;5118683;28;20206;-72
2023/06/14 04:21:28;;;;;;;5.20;2.50;;;;;;;;;;5119053;28;20517;-73
2023/06/14 04:23:56;;;;;;;5.03;2.23;;;;;;;;;;5118844;28;20693;-73
2023/06/14 04:26:29;;;;;;;4.37;2.20;;;;;;;;;;5118907;28;20259;-73
2023/06/14 04:29:01;;;;;;;4.73;2.53;;;;;;;;;;5111169;28;20697;-73
2023/06/14 04:31:33;;;;;;;6.30;2.47;;;;;;;;;;5118750;28;20250;-73
2023/06/14 04:34:05;;;;;;;4.90;3.17;;;;;;;;;;5118530;28;20694;-72
2023/06/14 04:36:36;;;;;;;6.80;3.00;;;;;;;;;;5118693;28;20691;-72
2023/06/14 04:39:05;;;;;;;6.13;2.50;;;;;;;;;;5117755;28;20666;-72
2023/06/14 04:41:34;;;;;;;3.60;2.57;;;;;;;;;;5110534;28;20205;-71
2023/06/14 04:44:03;;;;;;;4.43;2.53;;;;;;;;;;5118519;28;20209;-72
2023/06/14 04:46:33;;;;;;;3.97;2.40;;;;;;;;;;5118653;28;20221;-72
2023/06/14 04:49:02;;;;;;;3.30;2.70;;;;;;;;;;5118452;28;20206;-71
2023/06/14 04:51:33;;;;;;;4.30;2.77;;;;;;;;;;5118610;28;20243;-72
2023/06/14 04:54:02;;;;;;;8.30;2.60;;;;;;;;;;5118342;28;20240;-72
2023/06/14 04:56:31;;;;;;;4.13;2.60;;;;;;;;;;5118543;28;20230;-72
2023/06/14 04:58:59;;;;;;;4.13;2.43;;;;;;;;;;5118690;28;20209;-72
2023/06/14 05:01:27;;;;;;;4.90;2.80;;;;;;;;;;5118188;28;20205;-72
2023/06/14 05:03:57;;;;;;;4.97;2.80;;;;;;;;;;5118243;28;20204;-72
2023/06/14 05:06:26;;;;;;;3.87;3.10;;;;;;;;;;5118071;28;20297;-71
2023/06/14 05:08:54;;;;;;;4.33;3.00;;;;;;;;;;5118047;28;20236;-72
2023/06/14 05:11:23;;;;;;;4.57;3.07;;;;;;;;;;5118030;28;20220;-71
2023/06/14 05:13:52;;;;;;;4.50;3.10;;;;;;;;;;5118424;28;20214;-71
2023/06/14 05:16:24;;;;;;;2.97;2.67;;;;;;;;;;5117974;28;20254;-70
2023/06/14 05:18:52;;;;;;;4.23;2.87;;;;;;;;;;5117817;28;20253;-72
2023/06/14 05:21:22;;;;;;;3.60;3.30;;;;;;;;;;5117387;28;20201;-71
2023/06/14 05:23:51;;;;;;;5.97;3.30;;;;;;;;;;5117903;28;20216;-70
2023/06/14 05:26:20;;;;;;;5.87;3.43;;;;;;;;;;5118170;28;20217;-72
2023/06/14 05:28:48;;;;;;;9.00;3.40;;;;;;;;;;5118075;28;20207;-72
2023/06/14 05:31:16;;;;;;;7.23;3.73;;;;;;;;;;5117865;28;20221;-72
2023/06/14 05:33:44;;;;;;;5.83;3.37;;;;;;;;;;5117949;28;20249;-70
2023/06/14 05:36:12;;;;;;;4.83;3.30;;;;;;;;;;5117868;28;20225;-63
2023/06/14 05:38:42;;;;;;;8.30;3.80;;;;;;;;;;5117898;28;20219;-64
2023/06/14 05:41:10;;;;;;;4.27;3.30;;;;;;;;;;5117846;28;20687;-63
2023/06/14 05:43:39;;;;;;;4.37;3.97;;;;;;;;;;5117810;28;20233;-63
2023/06/14 05:46:10;;;;;;;7.40;4.20;;;;;;;;;;5117889;28;20221;-63
2023/06/14 05:48:39;;;;;;;5.33;3.83;;;;;;;;;;5117804;28;20208;-63
2023/06/14 05:51:08;;;;;;;6.47;4.13;;;;;;;;;;5117793;28;20700;-63
2023/06/14 05:53:37;;;;;;;8.13;3.33;;;;;;;;;;5119360;28;20229;-63
2023/06/14 05:56:07;;;;;;;5.30;3.80;;;;;;;;;;5118025;28;20223;-63
2023/06/14 05:58:35;;;;;;;6.60;4.10;;;;;;;;;;5129563;28;20244;-63
2023/06/14 06:01:04;;;;;;;5.33;4.00;;;;;;;;;;5114968;28;20193;-63
2023/06/14 06:03:33;;;;;;;8.67;4.00;;;;;;;;;;5118889;28;20197;-63
2023/06/14 06:06:02;;;;;;;8.37;4.67;;;;;;;;;;5119629;28;20221;-63
2023/06/14 06:08:32;;;;;;;6.90;3.87;;;;;;;;;;5120212;28;20292;-63
2023/06/14 06:11:01;;;;;;;7.17;4.27;;;;;;;;;;5118004;28;20213;-63
2023/06/14 06:13:32;;;;;;;6.57;3.53;;;;;;;;;;5118846;28;20196;-64
2023/06/14 06:16:03;;;;;;;6.37;3.77;;;;;;;;;;5118408;28;20225;-64
2023/06/14 06:18:42;;;;;;;6.87;4.23;;;;;;;;;;5120518;28;20202;-64
2023/06/14 06:21:15;;;;;;;4.30;3.70;;;;;;;;;;5120673;28;20245;-65
2023/06/14 06:23:43;;;;;;;5.97;3.53;;;;;;;;;;5117531;28;20678;-65
2023/06/14 06:26:11;;;;;;;7.90;3.47;;;;;;;;;;5117255;28;20223;-64
2023/06/14 06:28:41;;;;;;;10.23;3.37;;;;;;;;;;5114370;28;20657;-65
2023/06/14 06:31:09;;;;;;;5.63;3.33;;;;;;;;;;5099357;28;20233;-64
2023/06/14 06:33:39;;;;;;;8.87;3.93;;;;;;;;;;5117710;28;20212;-65
2023/06/14 06:36:07;;;;;;;4.10;3.70;;;;;;;;;;5121278;28;20256;-65
2023/06/14 06:38:38;;;;;;;7.27;3.70;;;;;;;;;;5121207;28;20213;-64
2023/06/14 06:41:06;;;;;;;7.23;3.53;;;;;;;;;;5121163;28;20217;-65
2023/06/14 06:43:34;;;;;;;8.03;3.43;;;;;;;;;;5121199;28;20206;-64
2023/06/14 06:46:04;;;;;;;4.80;3.60;;;;;;;;;;5120957;28;20265;-65
2023/06/14 06:48:32;;;;;;;7.63;3.40;;;;;;;;;;5120554;28;20630;-65
2023/06/14 06:51:01;;;;;;;6.43;3.77;;;;;;;;;;5120915;28;20214;-64
2023/06/14 06:53:29;;;;;;;7.00;3.03;;;;;;;;;;5120560;28;20247;-62
2023/06/14 06:56:09;;;;;;;5.63;3.50;;;;;;;;;;5120819;28;20227;-65
2023/06/14 06:58:37;;;;;;;5.57;3.50;;;;;;;;;;5120916;28;20208;-64
2023/06/14 07:01:09;;;;;;;6.13;3.50;;;;;;;;;;5120493;28;20756;-65
2023/06/14 07:03:37;;;;;;;6.07;3.43;;;;;;;;;;5120562;28;20210;-65
2023/06/14 07:06:05;;;;;;;6.00;2.93;;;;;;;;;;5120358;28;20311;-64
2023/06/14 07:08:34;;;;;;;4.23;3.10;;;;;;;;;;5120001;28;20202;-64
2023/06/14 07:11:02;;;;;;;6.80;3.50;;;;;;;;;;5120264;28;20584;-63
2023/06/14 07:13:30;;;;;;;8.70;3.63;;;;;;;;;;5120040;28;20205;-63
2023/06/14 07:15:59;;;;;;;5.27;3.73;;;;;;;;;;5102635;28;20246;-63
2023/06/14 07:18:29;;;;;;;6.37;4.03;;;;;;;;;;5106171;27;20569;-63
2023/06/14 07:20:58;;;;;;;4.87;3.70;;;;;;;;;;5140814;27;20217;-63
2023/06/14 07:23:26;;;;;;;4.00;3.70;;;;;;;;;;5120589;27;20211;-63
2023/06/14 07:25:54;;;;;;;5.10;3.77;;;;;;;;;;5119838;28;20274;-63
2023/06/14 07:28:22;;;;;;;9.57;3.83;;;;;;;;;;5116624;28;20244;-64
2023/06/14 07:30:50;;;;;;;5.20;3.47;;;;;;;;;;5120115;28;20201;-63
2023/06/14 07:33:18;;;;;;;5.67;3.90;;;;;;;;;;5118903;28;20262;-63
2023/06/14 07:35:49;;;;;;;8.47;3.83;;;;;;;;;;5121447;27;20236;-63
2023/06/14 07:38:17;;;;;;;5.67;3.73;;;;;;;;;;5140275;27;20209;-65
2023/06/14 07:40:46;;;;;;;4.53;3.70;;;;;;;;;;5140410;27;20214;-65
2023/06/14 07:43:34;;;;;;;5.67;3.70;;;;;;;;;;5139946;27;20197;-64
2023/06/14 07:46:06;;;;;;;8.63;4.50;;;;;;;;;;5138109;27;20227;-65
2023/06/14 07:48:35;;;;;;;4.70;3.83;;;;;;;;;;5140031;27;20238;-64
2023/06/14 07:51:05;;;;;;;4.10;3.70;;;;;;;;;;5139880;27;20566;-64
2023/06/14 07:53:34;;;;;;;6.53;3.90;;;;;;;;;;5139536;27;20288;-64
2023/06/14 07:56:02;;;;;;;6.33;4.03;;;;;;;;;;5139541;27;20230;-64
2023/06/14 07:58:31;;;;;;;4.33;3.90;;;;;;;;;;5139858;27;20663;-64
2023/06/14 08:00:59;;;;;;;4.47;3.90;;;;;;;;;;5139585;27;20758;-64
2023/06/14 08:03:28;;;;;;;4.10;3.70;;;;;;;;;;5139413;27;20202;-64
2023/06/14 08:05:56;;;;;;;6.93;4.17;;;;;;;;;;5139278;27;20281;-64
2023/06/14 08:08:25;;;;;;;4.10;3.70;;;;;;;;;;5124335;27;20722;-64
2023/06/14 08:10:53;;;;;;;7.13;4.40;;;;;;;;;;5114804;28;20205;-64
2023/06/14 08:13:22;;;;;;;6.90;4.23;;;;;;;;;;5133166;27;20337;-64
2023/06/14 08:15:50;;;;;;;4.87;3.60;;;;;;;;;;5132557;27;20315;-64
2023/06/14 08:18:18;;;;;;;4.20;3.80;;;;;;;;;;5118862;28;20231;-64
2023/06/14 08:20:46;;;;;;;4.70;3.83;;;;;;;;;;5119201;28;20260;-64
2023/06/14 08:23:15;;;;;;;5.43;3.90;;;;;;;;;;5119196;28;20204;-64
2023/06/14 08:25:45;;;;;;;4.13;3.73;;;;;;;;;;5118986;28;20311;-64
2023/06/14 08:28:13;;;;;;;7.43;4.53;;;;;;;;;;5118877;28;20212;-64
2023/06/14 08:30:42;;;;;;;7.87;4.03;;;;;;;;;;5119098;28;20206;-64
2023/06/14 08:33:10;;;;;;;5.53;4.50;;;;;;;;;;5118765;28;20238;-65
2023/06/14 08:35:44;;;;;;;5.73;4.20;;;;;;;;;;5118679;28;20590;-65
2023/06/14 08:38:12;;;;;;;6.93;4.73;;;;;;;;;;5118922;28;20288;-64
2023/06/14 08:40:42;;;;;;;49.70;36.03;;;;;;;;;;5118876;28;20257;-65
2023/06/14 08:43:14;;;;;;;13.77;11.40;;;;;;;;;;5118644;28;20682;-65
2023/06/14 08:45:44;;;;;;;5.37;4.60;;;;;;;;;;5118689;28;20238;-65
2023/06/14 08:48:16;;;;;;;7.90;4.50;;;;;;;;;;5118560;28;20287;-65
2023/06/14 08:50:46;;;;;;;9.27;3.53;;;;;;;;;;5118852;28;20253;-65
2023/06/14 08:53:20;;;;;;;10.80;4.13;;;;;;;;;;5117983;28;20236;-65
2023/06/14 08:55:49;;;;;;;4.47;3.33;;;;;;;;;;5117452;28;20220;-64
2023/06/14 08:58:24;;;;;;;5.10;3.87;;;;;;;;;;5118602;28;20289;-65
2023/06/14 09:00:52;;;;;;;7.00;3.93;;;;;;;;;;5118537;28;20237;-65
2023/06/14 09:03:20;;;;;;;7.00;5.30;;;;;;;;;;5118083;28;20202;-65
2023/06/14 09:05:54;;;;;;;5.10;4.30;;;;;;;;;;5118500;28;20321;-65
2023/06/14 09:08:24;;;;;;;7.30;4.77;;;;;;;;;;5118343;28;20219;-65
2023/06/14 09:10:52;;;;;;;5.97;4.20;;;;;;;;;;5118215;28;20613;-65
2023/06/14 09:13:22;;;;;;;7.43;3.87;;;;;;;;;;5118104;28;20236;-65
2023/06/14 09:15:51;;;;;;;5.27;4.23;;;;;;;;;;5117974;28;20226;-64
2023/06/14 09:18:21;;;;;;;6.47;4.20;;;;;;;;;;5117809;28;20636;-64
2023/06/14 09:20:49;;;;;;;5.23;3.63;;;;;;;;;;5118186;28;20245;-65
2023/06/14 09:23:21;;;;;;;4.73;4.33;;;;;;;;;;5118259;28;20267;-65
2023/06/14 09:25:49;;;;;;;5.57;3.67;;;;;;;;;;5118090;28;20221;-65
2023/06/14 09:28:18;;;;;;;6.03;3.97;;;;;;;;;;5118035;28;20632;-64
2023/06/14 09:30:47;;;;;;;4.83;4.43;;;;;;;;;;5117985;28;20215;-65
2023/06/14 09:33:18;;;;;;;6.57;3.80;;;;;;;;;;5117397;28;20271;-64
2023/06/14 09:35:46;;;;;;;4.87;4.20;;;;;;;;;;5118246;28;20306;-64
2023/06/14 09:38:14;;;;;;;4.00;3.57;;;;;;;;;;5116562;28;20558;-64
2023/06/14 09:40:43;;;;;;;4.77;4.20;;;;;;;;;;5120186;28;20199;-64
2023/06/14 09:43:11;;;;;;;5.03;4.07;;;;;;;;;;5117504;28;20563;-64
2023/06/14 09:45:40;;;;;;;8.27;4.27;;;;;;;;;;5118496;28;20213;-65
2023/06/14 09:48:10;;;;;;;4.73;3.90;;;;;;;;;;5130298;28;20204;-64
2023/06/14 09:50:40;;;;;;;4.70;4.03;;;;;;;;;;5131326;27;20209;-66
2023/06/14 09:53:11;;;;;;;4.57;4.17;;;;;;;;;;5117530;28;20236;-65
2023/06/14 09:55:41;;;;;;;5.10;3.63;;;;;;;;;;5118083;28;20319;-64
2023/06/14 09:58:11;;;;;;;6.87;3.87;;;;;;;;;;5117963;28;20246;-65
2023/06/14 10:00:40;;;;;;;4.40;4.00;;;;;;;;;;5117825;28;20214;-65
2023/06/14 10:03:13;;;;;;;4.53;4.13;;;;;;;;;;5113248;28;20204;-66
2023/06/14 10:05:44;;;;;;;7.63;4.33;;;;;;;;;;5117604;28;20232;-65
2023/06/14 10:08:15;;;;;;;4.73;3.80;;;;;;;;;;5119933;28;20211;-65
2023/06/14 10:10:44;;;;;;;7.37;4.53;;;;;;;;;;5121796;28;20212;-65
2023/06/14 10:13:12;;;;;;;5.07;4.33;;;;;;;;;;5121691;28;20237;-65
2023/06/14 10:15:44;;;;;;;4.90;4.30;;;;;;;;;;5115834;28;20608;-65
2023/06/14 10:18:20;;;;;;;4.87;4.07;;;;;;;;;;5120176;27;20288;-65
2023/06/14 10:20:52;;;;;;;3.80;3.50;;;;;;;;;;5108672;28;20264;-65
2023/06/14 10:23:22;;;;;;;7.33;3.90;;;;;;;;;;5122438;27;20197;-65
2023/06/14 10:25:51;;;;;;;4.43;4.03;;;;;;;;;;5138739;27;20219;-65
2023/06/14 10:28:22;;;;;;;7.20;4.40;;;;;;;;;;5121216;28;20277;-65
2023/06/14 10:31:09;;;;;;;7.77;4.67;;;;;;;;;;5121517;28;20248;-65
2023/06/14 10:33:40;;;;;;;5.37;4.87;;;;;;;;;;5120737;28;20710;-65
2023/06/14 10:36:26;;;;;;;4.77;4.13;;;;;;;;;;5121410;28;20224;-65
2023/06/14 10:39:08;;;;;;;5.40;4.00;;;;;;;;;;5121272;28;20305;-65
2023/06/14 10:41:36;;;;;;;5.73;3.73;;;;;;;;;;5121204;28;20233;-65
2023/06/14 10:44:23;;;;;;;4.50;4.10;;;;;;;;;;5120922;28;20201;-65
2023/06/14 10:46:53;;;;;;;5.07;4.13;;;;;;;;;;5120805;28;20247;-65
2023/06/14 10:49:41;;;;;;;4.50;4.07;;;;;;;;;;5120729;28;20572;-65
2023/06/14 10:52:18;;;;;;;4.50;4.03;;;;;;;;;;5121142;28;20231;-65
2023/06/14 10:55:04;;;;;;;4.87;3.87;;;;;;;;;;5120460;28;20239;-65
2023/06/14 10:57:32;;;;;;;4.43;4.03;;;;;;;;;;5120669;28;20215;-65
2023/06/14 11:00:22;;;;;;;4.37;3.97;;;;;;;;;;5120887;28;20210;-65
2023/06/14 11:03:24;;;;;;;4.10;3.73;;;;;;;;;;5120617;28;20305;-65
2023/06/14 11:05:54;;;;;;;7.97;3.30;;;;;;;;;;5057490;28;20235;-65
2023/06/14 11:08:31;;;;;;;4.33;3.57;;;;;;;;;;5057624;28;20440;-65
2023/06/14 11:11:00;;;;;;;5.83;3.90;;;;;;;;;;5090934;28;20296;-64
2023/06/14 11:13:28;;;;;;;6.23;4.30;;;;;;;;;;5120183;27;20222;-65
2023/06/14 11:15:59;;;;;;;5.20;3.90;;;;;;;;;;5120506;28;20225;-65
2023/06/14 11:18:29;;;;;;;3.47;3.17;;;;;;;;;;5119754;28;20212;-65
2023/06/14 11:20:58;;;;;;;3.80;3.30;;;;;;;;;;5120323;28;20206;-68
2023/06/14 11:23:26;;;;;;;10.23;8.87;;;;;;;;;;5120062;28;20214;-66
2023/06/14 11:25:55;;;;;;;6.80;3.80;;;;;;;;;;5119977;28;20224;-66
2023/06/14 11:28:36;;;;;;;4.70;3.50;;;;;;;;;;5120232;28;20206;-67
2023/06/14 11:31:04;;;;;;;3.97;3.23;;;;;;;;;;5120126;28;20691;-69
2023/06/14 11:33:32;;;;;;;4.40;3.27;;;;;;;;;;5119864;28;20212;-68
2023/06/14 11:36:05;;;;;;;6.03;3.70;;;;;;;;;;5119906;28;20665;-68
2023/06/14 11:38:36;;;;;;;3.97;3.57;;;;;;;;;;5119691;28;20241;-69
2023/06/14 11:41:16;;;;;;;6.40;3.73;;;;;;;;;;5119896;28;20257;-67
2023/06/14 11:43:53;;;;;;;5.83;3.30;;;;;;;;;;5119843;28;20199;-67
2023/06/14 11:46:24;;;;;;;4.00;3.50;;;;;;;;;;5118424;28;20214;-67
2023/06/14 11:48:53;;;;;;;4.07;3.67;;;;;;;;;;5119250;28;20195;-70
2023/06/14 11:51:22;;;;;;;4.63;3.77;;;;;;;;;;5119627;28;20213;-68
2023/06/14 11:53:50;;;;;;;4.70;3.57;;;;;;;;;;5119191;28;20223;-68
2023/06/14 11:56:19;;;;;;;3.80;3.40;;;;;;;;;;5118694;28;20415;-68
2023/06/14 11:58:47;;;;;;;4.50;3.47;;;;;;;;;;5104715;28;20230;-68
2023/06/14 12:01:17;;;;;;;5.40;4.13;;;;;;;;;;5110688;28;20210;-67
2023/06/14 12:03:48;;;;;;;4.93;3.10;;;;;;;;;;5119244;28;20198;-67
2023/06/14 12:06:17;;;;;;;4.47;3.53;;;;;;;;;;5119335;28;20222;-68
2023/06/14 12:08:49;;;;;;;3.50;3.20;;;;;;;;;;5119022;28;20203;-68
2023/06/14 12:11:17;;;;;;;6.57;3.67;;;;;;;;;;5118986;28;20213;-67
2023/06/14 12:13:46;;;;;;;3.83;3.40;;;;;;;;;;5118574;28;20207;-67
2023/06/14 12:16:14;;;;;;;5.70;3.90;;;;;;;;;;5116839;28;20226;-67
2023/06/14 12:18:43;;;;;;;15.43;4.60;;;;;;;;;;5110647;28;20645;-67
2023/06/14 12:21:11;;;;;;;5.73;3.90;;;;;;;;;;5119046;28;20217;-68
2023/06/14 12:23:40;;;;;;;7.27;4.07;;;;;;;;;;5118979;28;20692;-68
2023/06/14 12:26:10;;;;;;;5.27;3.77;;;;;;;;;;5119064;28;20218;-69
2023/06/14 12:28:41;;;;;;;4.27;3.57;;;;;;;;;;5119280;28;20210;-66
2023/06/14 12:31:09;;;;;;;3.83;3.43;;;;;;;;;;5124113;27;20611;-68
2023/06/14 12:33:37;;;;;;;4.00;3.50;;;;;;;;;;5137461;27;20206;-66
2023/06/14 12:36:06;;;;;;;4.37;3.30;;;;;;;;;;5118203;28;20226;-67
2023/06/14 12:38:34;;;;;;;4.90;3.23;;;;;;;;;;5132638;27;20206;-68
2023/06/14 12:41:02;;;;;;;4.20;3.50;;;;;;;;;;5139317;27;20215;-68
2023/06/14 12:43:32;;;;;;;5.50;3.40;;;;;;;;;;5137837;27;20212;-67
2023/06/14 12:46:00;;;;;;;3.60;3.13;;;;;;;;;;5138964;27;20248;-69
2023/06/14 12:48:30;;;;;;;4.03;2.97;;;;;;;;;;5138835;27;20231;-70
2023/06/14 12:50:59;;;;;;;4.60;3.50;;;;;;;;;;5139427;27;20290;-68
2023/06/14 12:53:27;;;;;;;3.47;3.13;;;;;;;;;;5138760;27;20665;-68
2023/06/14 12:55:55;;;;;;;7.50;3.23;;;;;;;;;;5139130;27;20294;-66
2023/06/14 12:58:24;;;;;;;5.80;3.27;;;;;;;;;;5138816;27;20248;-67
2023/06/14 13:00:54;;;;;;;3.60;3.20;;;;;;;;;;5139302;27;20204;-68
2023/06/14 13:03:22;;;;;;;6.03;3.47;;;;;;;;;;5138592;27;20694;-67
2023/06/14 13:05:50;;;;;;;3.60;3.10;;;;;;;;;;5138884;27;20223;-68
2023/06/14 13:08:19;;;;;;;3.57;3.27;;;;;;;;;;5125089;27;20216;-69
2023/06/14 13:10:51;;;;;;;3.50;3.20;;;;;;;;;;5118307;28;20652;-68
2023/06/14 13:13:20;;;;;;;3.70;3.30;;;;;;;;;;5118473;28;20244;-69
2023/06/14 13:15:49;;;;;;;5.60;3.10;;;;;;;;;;5118006;28;20309;-68
2023/06/14 13:18:19;;;;;;;4.90;3.40;;;;;;;;;;5117972;28;20568;-66
2023/06/14 13:20:47;;;;;;;3.20;2.90;;;;;;;;;;5108406;28;20284;-68
2023/06/14 13:23:16;;;;;;;3.77;3.10;;;;;;;;;;5110937;28;20214;-68
2023/06/14 13:25:49;;;;;;;3.97;3.37;;;;;;;;;;5115020;27;20654;-68
2023/06/14 13:28:17;;;;;;;7.33;4.67;;;;;;;;;;5118124;28;20203;-69
2023/06/14 13:30:46;;;;;;;5.30;3.03;;;;;;;;;;5118115;28;20233;-69
2023/06/14 13:33:17;;;;;;;3.87;3.47;;;;;;;;;;5117960;28;20213;-70
2023/06/14 13:35:46;;;;;;;4.70;3.63;;;;;;;;;;5117448;28;20262;-69
2023/06/14 13:38:14;;;;;;;4.00;3.00;;;;;;;;;;5112692;28;20204;-67
2023/06/14 13:40:43;;;;;;;6.60;3.60;;;;;;;;;;5127000;28;20299;-70
2023/06/14 13:43:11;;;;;;;4.53;3.40;;;;;;;;;;5120320;28;20209;-73
2023/06/14 13:45:39;;;;;;;5.63;3.70;;;;;;;;;;5115362;27;20227;-67
2023/06/14 13:48:07;;;;;;;3.57;3.20;;;;;;;;;;5142382;27;20203;-73
2023/06/14 13:50:35;;;;;;;7.73;3.57;;;;;;;;;;5139667;27;20268;-71
2023/06/14 13:53:05;;;;;;;7.10;3.17;;;;;;;;;;5117180;27;20239;-72
2023/06/14 13:55:33;;;;;;;5.33;3.40;;;;;;;;;;5115383;28;20681;-72
2023/06/14 13:58:01;;;;;;;8.50;3.13;;;;;;;;;;5120424;28;20202;-72
2023/06/14 14:00:30;;;;;;;6.05;2.90;;;;;;;;;;5121524;28;20205;-72
2023/06/14 14:02:59;;;;;;;6.07;3.20;;;;;;;;;;5121360;28;20210;-72
2023/06/14 14:05:29;;;;;;;9.82;3.60;;;;;;;;;;5121499;27;20222;-73
2023/06/14 14:07:57;;;;;;;2.90;2.70;;;;;;;;;;5121386;28;20207;-72
2023/06/14 14:10:27;;;;;;;3.30;2.97;;;;;;;;;;5121848;28;20227;-72
2023/06/14 14:12:56;;;;;;;3.17;2.60;;;;;;;;;;5121325;28;20567;-72
2023/06/14 14:15:25;;;;;;;5.18;3.08;;;;;;;;;;5118820;28;20251;-72
2023/06/14 14:17:54;;;;;;;6.35;2.95;;;;;;;;;;5112388;28;20273;-72
2023/06/14 14:20:22;;;;;;;4.57;3.13;;;;;;;;;;5121303;28;20270;-72
2023/06/14 14:22:50;;;;;;;7.15;2.88;;;;;;;;;;5121376;28;20548;-72
2023/06/14 14:25:18;;;;;;;3.38;2.67;;;;;;;;;;5112968;28;20254;-72
2023/06/14 14:27:48;;;;;;;5.25;3.10;;;;;;;;;;5112706;28;20208;-72
2023/06/14 14:30:17;;;;;;;3.30;2.70;;;;;;;;;;5112387;28;20208;-72
2023/06/14 14:32:46;;;;;;;3.22;2.72;;;;;;;;;;5120815;28;20612;-72
2023/06/14 14:35:14;;;;;;;3.05;2.78;;;;;;;;;;5121065;28;20225;-72
2023/06/14 14:37:42;;;;;;;4.05;2.53;;;;;;;;;;5121223;28;20204;-72
2023/06/14 14:40:11;;;;;;;5.70;2.47;;;;;;;;;;5121168;28;20289;-72
2023/06/14 14:42:39;;;;;;;7.22;2.70;;;;;;;;;;5120838;28;20239;-72
2023/06/14 14:45:09;;;;;;;3.50;2.53;;;;;;;;;;5120766;28;20206;-72
2023/06/14 14:47:38;;;;;;;3.78;2.50;;;;;;;;;;5120676;28;20568;-72
2023/06/14 14:50:08;;;;;;;2.92;2.60;;;;;;;;;;5120949;28;20655;-72
2023/06/14 14:52:36;;;;;;;2.95;2.15;;;;;;;;;;5121174;28;20278;-72
2023/06/14 14:55:05;;;;;;;3.80;2.30;;;;;;;;;;5118962;28;20787;-72
2023/06/14 14:57:33;;;;;;;2.35;2.13;;;;;;;;;;5120809;28;20565;-72
2023/06/14 15:00:01;;;;;;;4.63;2.63;;;;;;;;;;5120583;28;20207;-72